Terminal Aerodrome Forecast
Issued by NWS Atlanta, GA

Home | Current Version | Previous Version | Text Only | Print | Product List | Glossary On
Versions: 1 2 3 4 5 6 7 8 9 10 11 12 13 14 15 16 17 18 19 20 21 22 23 24 25 26 27 28 29 30 31 32 33 34 35
000
FTUS42 KFFC 281550 AAB
TAFATL
TAF AMD
KATL 281550Z 2816/2918 20006KT 3SM -RA BR BKN006 OVC010
      TEMPO 2816/2819 BKN003 OVC006
     FM282200 29004KT 5SM BR VCSH OVC006
     FM290200 31004KT 3SM -RA BR OVC005
     FM291200 33005KT P6SM OVC007=

USA.gov is the U.S. government's official web portal to all federal, state and local government web resources and services.